Austin/Bergstrom AFB, Texas
Current Conditions -  °F | °C
As of 3:53 AM on Saturday 22 Nov 2014 (Local Time) from KAUS Reporting Station
Overcast Overcast  
Wind Chill: 66°   Ceiling: 1300
Heat Index: 66°   Visibility: 10mi
Dew Point: 63°   Wind: 12mph
Humidity: 90%   Direction: 140°SE
Pressure: 30.02"   Gusts: NA
Location:  30.2°N, 97.68°W
Report Text: KAUS 220953Z 14010KT 10SM OVC013 19/17 A3002 RMK AO2 SLP159 T01890172
Loading
Personal Weather Stations






























Interactive Weather Map New forecast layout! Learn more

10-Day Weather Forecast

Advertisements
Track Severe Weather on mobile